Time;durP1;ratioP1;P1;durP2;ratioP2;P2;SDS_P1;SDS_P2;PMS_P1;PMS_P2;Temp;Humidity;BMP_temperature;BMP_pressure;BME280_temperature;BME280_humidity;BME280_pressure;Samples;Min_cycle;Max_cycle;Signal;HPM_P1;HPM_P2
2023/07/14 00:00:07;;;;;;;;;;;;;;;29.38;36.27;100461.16;4938221;29;1388;-18
2023/07/14 00:02:36;;;;;;;;;;;;;;;29.43;35.66;100459.50;4940011;29;836;-18
2023/07/14 00:05:02;;;;;;;;;;;;;;;29.44;35.84;100463.88;4925299;29;1177;-17
2023/07/14 00:07:27;;;;;;;;;;;;;;;29.46;36.02;100458.25;4941954;29;1371;-18
2023/07/14 00:09:53;;;;;;;;;;;;;;;29.43;35.52;100455.94;4942138;29;1212;-18
2023/07/14 00:12:19;;;;;;;;;;;;;;;29.33;35.99;100454.47;4941299;29;1101;-18
2023/07/14 00:14:44;;;;;;;;;;;;;;;29.42;36.05;100448.84;4941901;29;1050;-17
2023/07/14 00:17:13;;;;;;;;;;;;;;;29.42;36.11;100446.16;4941826;29;1915;-16
2023/07/14 00:19:39;;;;;;;;;;;;;;;29.45;35.46;100443.88;4941588;29;1013;-16
2023/07/14 00:22:12;;;;;;;;;;;;;;;29.41;35.32;100442.59;4941858;29;1027;-16
2023/07/14 00:24:38;;;;;;;;;;;;;;;29.46;35.75;100436.56;4941518;29;1085;-16
2023/07/14 00:27:04;;;;;;;;;;;;;;;29.40;35.32;100440.94;4941284;29;1105;-16
2023/07/14 00:29:36;;;;;;;;;;;;;;;29.43;35.37;100429.69;4924689;29;1229;-16
2023/07/14 00:32:02;;;;;;;;;;;;;;;29.38;35.68;100424.03;4941335;29;1062;-16
2023/07/14 00:34:29;;;;;;;;;;;;;;;29.47;35.25;100419.28;4924344;29;1482;-17
2023/07/14 00:36:54;;;;;;;;;;;;;;;29.53;35.26;100425.75;4941415;29;1906;-16
2023/07/14 00:39:20;;;;;;;;;;;;;;;29.51;35.52;100427.81;4941384;29;1453;-16
2023/07/14 00:41:46;;;;;;;;;;;;;;;29.50;35.16;100424.28;4941091;29;1026;-16
2023/07/14 00:44:13;;;;;;;;;;;;;;;29.45;35.40;100432.19;4924567;29;1182;-16
2023/07/14 00:46:40;;;;;;;;;;;;;;;29.52;35.01;100437.63;4924544;29;1288;-16
2023/07/14 00:49:06;;;;;;;;;;;;;;;29.52;35.14;100434.91;4940961;29;1107;-16
2023/07/14 00:51:33;;;;;;;;;;;;;;;29.41;35.13;100439.06;4924211;29;1059;-16
2023/07/14 00:54:00;;;;;;;;;;;;;;;29.39;35.32;100416.75;4923929;29;1051;-16
2023/07/14 00:56:28;;;;;;;;;;;;;;;29.45;35.71;100429.47;4923911;29;1915;-16
2023/07/14 00:58:54;;;;;;;;;;;;;;;29.49;35.01;100428.03;4941337;29;1133;-16
2023/07/14 01:01:24;;;;;;;;;;;;;;;29.41;35.38;100420.91;4924214;29;1090;-16
2023/07/14 01:03:55;;;;;;;;;;;;;;;29.52;34.94;100422.19;4940659;29;1085;-16
2023/07/14 01:06:20;;;;;;;;;;;;;;;29.50;35.25;100413.44;4941238;29;1042;-16
2023/07/14 01:08:56;;;;;;;;;;;;;;;29.49;35.06;100416.34;4940686;29;1318;-16
2023/07/14 01:11:23;;;;;;;;;;;;;;;29.41;35.42;100412.78;4908097;29;1142;-16
2023/07/14 01:13:48;;;;;;;;;;;;;;;29.49;35.11;100416.34;4922516;29;1094;-16
2023/07/14 01:16:14;;;;;;;;;;;;;;;29.49;35.00;100410.94;4940541;29;1946;-16
2023/07/14 01:18:41;;;;;;;;;;;;;;;29.43;35.09;100402.59;4923466;29;1114;-16
2023/07/14 01:21:07;;;;;;;;;;;;;;;29.40;35.36;100397.59;4940680;29;1111;-16
2023/07/14 01:23:32;;;;;;;;;;;;;;;29.33;35.38;100397.56;4923655;29;1106;-16
2023/07/14 01:26:10;;;;;;;;;;;;;;;29.41;35.20;100396.53;4940007;29;1023;-16
2023/07/14 01:28:37;;;;;;;;;;;;;;;29.48;34.84;100396.53;4897209;29;1411;-16
2023/07/14 01:31:03;;;;;;;;;;;;;;;29.43;34.84;100402.59;4923753;29;1273;-16
2023/07/14 01:33:28;;;;;;;;;;;;;;;29.43;34.86;100402.59;4939839;29;1125;-16
2023/07/14 01:35:55;;;;;;;;;;;;;;;29.49;34.94;100395.50;4940575;29;1166;-16
2023/07/14 01:38:20;;;;;;;;;;;;;;;29.38;35.48;100388.81;4940395;29;1902;-16
2023/07/14 01:40:46;;;;;;;;;;;;;;;29.45;35.31;100386.97;4940214;29;1138;-16
2023/07/14 01:43:15;;;;;;;;;;;;;;;29.42;35.30;100389.25;4923391;29;1142;-16
2023/07/14 01:45:41;;;;;;;;;;;;;;;29.52;34.74;100403.22;4940032;29;1201;-16
2023/07/14 01:48:07;;;;;;;;;;;;;;;29.53;34.92;100410.31;4923135;29;1452;-17
2023/07/14 01:50:33;;;;;;;;;;;;;;;29.39;34.55;100412.19;4923262;29;1186;-16
2023/07/14 01:53:00;;;;;;;;;;;;;;;29.41;34.80;100410.09;4922869;29;1122;-16
2023/07/14 01:55:31;;;;;;;;;;;;;;;29.34;35.33;100396.53;4922772;29;1183;-16
2023/07/14 01:57:57;;;;;;;;;;;;;;;29.53;35.27;100394.03;4907895;29;1899;-16
2023/07/14 02:00:23;;;;;;;;;;;;;;;29.39;35.08;100397.78;4923088;29;1126;-16
2023/07/14 02:02:49;;;;;;;;;;;;;;;29.31;35.74;100396.13;4922794;29;872;-16
2023/07/14 02:05:23;;;;;;;;;;;;;;;29.30;35.23;100400.69;4906865;29;1074;-16
2023/07/14 02:07:49;;;;;;;;;;;;;;;29.36;35.46;100400.91;4922740;29;1114;-16
2023/07/14 02:10:18;;;;;;;;;;;;;;;29.37;35.31;100403.41;4922703;29;1142;-16
2023/07/14 02:12:46;;;;;;;;;;;;;;;29.37;35.17;100403.41;4923182;29;1221;-16
2023/07/14 02:15:18;;;;;;;;;;;;;;;29.41;35.20;100407.38;4922377;29;1456;-16
2023/07/14 02:17:43;;;;;;;;;;;;;;;29.33;35.50;100407.56;4922596;29;1910;-16
2023/07/14 02:20:19;;;;;;;;;;;;;;;29.25;35.44;100407.75;4922605;29;1154;-17
2023/07/14 02:22:45;;;;;;;;;;;;;;;29.47;35.60;100416.56;4922351;29;1140;-17
2023/07/14 02:25:11;;;;;;;;;;;;;;;29.51;34.98;100415.09;4921955;29;1059;-17
2023/07/14 02:27:37;;;;;;;;;;;;;;;29.47;35.11;100419.28;4922217;29;1361;-16
2023/07/14 02:30:13;;;;;;;;;;;;;;;29.42;35.33;100408.22;4915900;29;1046;-17
2023/07/14 02:32:40;;;;;;;;;;;;;;;29.41;35.02;100403.84;4934739;29;1014;-17
2023/07/14 02:35:18;;;;;;;;;;;;;;;29.30;35.42;100403.41;4922744;29;1035;-17
2023/07/14 02:38:06;;;;;;;;;;;;;;;29.39;35.32;100397.78;4921958;29;1907;-17
2023/07/14 02:40:43;;;;;;;;;;;;;;;29.28;35.25;100400.06;4939522;29;1168;-17
2023/07/14 02:43:10;;;;;;;;;;;;;;;29.27;35.24;100401.13;4910985;29;1411;-17
2023/07/14 02:45:36;;;;;;;;;;;;;;;29.18;35.32;100386.94;4921608;29;1086;-17
2023/07/14 02:48:02;;;;;;;;;;;;;;;29.19;35.63;100395.91;4922016;29;1110;-17
2023/07/14 02:50:27;;;;;;;;;;;;;;;29.26;35.29;100385.88;4922176;29;1221;-17
2023/07/14 02:52:53;;;;;;;;;;;;;;;29.37;34.87;100376.31;4921939;29;1188;-17
2023/07/14 02:55:19;;;;;;;;;;;;;;;29.30;34.65;100372.78;4921044;29;1633;-17
2023/07/14 02:57:44;;;;;;;;;;;;;;;29.36;34.45;100369.25;4927557;29;1972;-17
2023/07/14 03:00:10;;;;;;;;;;;;;;;29.29;34.99;100373.81;4922032;29;1179;-17
2023/07/14 03:02:38;;;;;;;;;;;;;;;29.27;35.13;100378.59;4921754;29;1167;-17
2023/07/14 03:05:04;;;;;;;;;;;;;;;29.36;34.59;100382.81;4939237;29;1066;-17
2023/07/14 03:07:32;;;;;;;;;;;;;;;29.36;34.56;100388.22;4921378;29;1062;-18
2023/07/14 03:09:58;;;;;;;;;;;;;;;29.38;34.90;100390.72;4938586;29;1074;-17
2023/07/14 03:12:23;;;;;;;;;;;;;;;29.37;34.95;100394.44;4922072;29;1131;-17
2023/07/14 03:14:49;;;;;;;;;;;;;;;29.34;34.84;100391.09;4938753;29;1154;-17
2023/07/14 03:17:14;;;;;;;;;;;;;;;29.25;38.98;100396.94;4938369;29;1970;-14
2023/07/14 03:19:40;;;;;;;;;;;;;;;29.07;37.80;100392.94;4939223;29;1204;-14
2023/07/14 03:22:06;;;;;;;;;;;;;;;29.15;39.20;100389.22;4939149;29;1173;-14
2023/07/14 03:24:31;;;;;;;;;;;;;;;29.00;39.85;100392.94;4938678;29;1126;-14
2023/07/14 03:26:57;;;;;;;;;;;;;;;28.94;40.83;100386.44;4938716;29;965;-14
2023/07/14 03:29:23;;;;;;;;;;;;;;;28.90;40.43;100389.75;4938508;29;1146;-14
2023/07/14 03:31:48;;;;;;;;;;;;;;;28.99;39.77;100393.16;4926090;29;1339;-20
2023/07/14 03:34:51;;;;;;;;;;;;;;;28.99;39.80;100391.28;5081461;28;1317;-34
2023/07/14 03:37:17;;;;;;;;;;;;;;;29.23;39.50;100393.63;5060522;28;1138;-35
2023/07/14 03:39:42;;;;;;;;;;;;;;;28.81;40.70;100394.53;5066494;28;1043;-37
2023/07/14 03:42:08;;;;;;;;;;;;;;;28.53;41.59;100390.88;5054270;28;1051;-37
2023/07/14 03:44:34;;;;;;;;;;;;;;;29.00;38.98;100383.97;5066743;28;1119;-35
2023/07/14 03:47:02;;;;;;;;;;;;;;;28.34;43.43;100381.63;5066544;28;1104;-39
2023/07/14 03:49:28;;;;;;;;;;;;;;;27.89;50.01;100390.06;5073159;28;955;-32
2023/07/14 03:51:53;;;;;;;;;;;;;;;28.19;51.04;100389.84;5068794;28;919;-32
2023/07/14 03:54:19;;;;;;;;;;;;;;;27.73;53.56;100392.88;5073250;28;1906;-36
2023/07/14 03:56:45;;;;;;;;;;;;;;;27.93;53.04;100394.88;5073451;28;1099;-37
2023/07/14 03:59:11;;;;;;;;;;;;;;;27.97;53.07;100396.16;5071953;28;1068;-15
2023/07/14 04:01:36;;;;;;;;;;;;;;;27.31;52.41;100395.38;5072503;28;1177;-15
2023/07/14 04:04:02;;;;;;;;;;;;;;;28.46;52.47;100400.84;5067574;28;869;-15
2023/07/14 04:06:30;;;;;;;;;;;;;;;28.31;52.67;100406.34;5075049;28;1105;-15
2023/07/14 04:08:57;;;;;;;;;;;;;;;28.38;53.54;100407.25;5058364;28;1231;-15
2023/07/14 04:11:23;;;;;;;;;;;;;;;28.36;54.52;100415.56;5071581;28;1110;-15
2023/07/14 04:13:48;;;;;;;;;;;;;;;28.19;55.12;100425.00;5072392;28;1898;-15
2023/07/14 04:16:14;;;;;;;;;;;;;;;28.39;54.63;100425.16;5072144;28;907;-15
2023/07/14 04:18:40;;;;;;;;;;;;;;;28.98;52.14;100424.78;5072819;28;1066;-15
2023/07/14 04:21:09;;;;;;;;;;;;;;;29.19;50.42;100434.66;5072736;28;979;-15
2023/07/14 04:23:35;;;;;;;;;;;;;;;29.60;49.28;100440.16;5072462;28;1051;-15
2023/07/14 04:26:01;;;;;;;;;;;;;;;29.36;52.25;100452.41;5072682;28;1089;-15
2023/07/14 04:28:28;;;;;;;;;;;;;;;29.28;50.68;100454.25;5072113;28;1539;-15
2023/07/14 04:30:57;;;;;;;;;;;;;;;26.19;57.01;100461.00;5072973;28;1070;-15
2023/07/14 04:33:23;;;;;;;;;;;;;;;22.89;59.62;100459.63;5080368;28;1971;-15
2023/07/14 04:35:49;;;;;;;;;;;;;;;21.50;61.04;100463.63;5092235;28;1078;-14
2023/07/14 04:38:15;;;;;;;;;;;;;;;23.32;60.78;100470.31;5092760;28;1094;-14
2023/07/14 04:40:41;;;;;;;;;;;;;;;24.60;59.44;100479.94;5092271;28;888;-14
2023/07/14 04:43:06;;;;;;;;;;;;;;;25.25;57.85;100489.78;5092235;28;1210;-15
2023/07/14 04:45:36;;;;;;;;;;;;;;;25.60;56.67;100533.34;5083304;28;1111;-15
2023/07/14 04:48:01;;;;;;;;;;;;;;;25.50;56.69;100576.69;5079021;28;1119;-14
2023/07/14 04:50:27;;;;;;;;;;;;;;;25.46;57.06;100579.91;5078670;28;1106;-15
2023/07/14 04:52:53;;;;;;;;;;;;;;;25.70;56.44;100578.09;5078563;28;1989;-15
2023/07/14 04:55:18;;;;;;;;;;;;;;;25.53;57.24;100564.69;5078579;28;1027;-16
2023/07/14 04:57:44;;;;;;;;;;;;;;;25.56;59.66;100549.03;5078887;28;1100;-16
2023/07/14 05:00:11;;;;;;;;;;;;;;;25.31;55.08;100529.47;5078484;28;1107;-16
2023/07/14 05:02:36;;;;;;;;;;;;;;;25.08;53.62;100546.41;5078496;28;1249;-16
2023/07/14 05:05:11;;;;;;;;;;;;;;;24.97;52.29;100528.78;5078732;28;1158;-16
2023/07/14 05:07:37;;;;;;;;;;;;;;;24.78;51.82;100530.81;5078828;28;1020;-16
2023/07/14 05:10:02;;;;;;;;;;;;;;;24.58;51.55;100541.13;5078236;28;1088;-16
2023/07/14 05:12:28;;;;;;;;;;;;;;;24.66;52.27;100527.66;5078372;28;1979;-16
2023/07/14 05:14:53;;;;;;;;;;;;;;;24.70;51.38;100538.91;5078186;28;1205;-16
2023/07/14 05:17:19;;;;;;;;;;;;;;;24.55;51.58;100531.56;5078179;28;1487;-16
2023/07/14 05:19:45;;;;;;;;;;;;;;;24.41;52.10;100533.09;5078227;28;1043;-16
2023/07/14 05:22:10;;;;;;;;;;;;;;;24.37;52.38;100542.50;5078076;28;1014;-16
2023/07/14 05:24:36;;;;;;;;;;;;;;;24.55;51.22;100554.91;5077692;28;1023;-16
2023/07/14 05:27:01;;;;;;;;;;;;;;;24.33;52.29;100565.34;5077667;28;1098;-15
2023/07/14 05:29:27;;;;;;;;;;;;;;;24.05;52.42;100571.88;5078123;28;1085;-16
2023/07/14 05:31:52;;;;;;;;;;;;;;;24.18;52.55;100578.63;5078373;28;1130;-16
2023/07/14 05:34:18;;;;;;;;;;;;;;;24.16;52.53;100591.34;5077691;28;1918;-16
2023/07/14 05:36:43;;;;;;;;;;;;;;;23.97;52.71;100602.25;5077734;28;1043;-16
2023/07/14 05:39:09;;;;;;;;;;;;;;;24.09;52.42;100618.88;5077737;28;1032;-15
2023/07/14 05:41:34;;;;;;;;;;;;;;;24.11;52.18;100632.16;5077633;28;1380;-16
2023/07/14 05:44:01;;;;;;;;;;;;;;;24.14;52.07;100661.38;5077489;28;1210;-14
2023/07/14 05:46:27;;;;;;;;;;;;;;;24.22;51.77;100652.56;5077961;28;1043;-15
2023/07/14 05:48:52;;;;;;;;;;;;;;;24.20;51.42;100658.09;5077598;28;1086;-15
2023/07/14 05:51:18;;;;;;;;;;;;;;;23.50;51.57;100649.28;5077112;28;1404;-15
2023/07/14 05:53:43;;;;;;;;;;;;;;;20.65;60.08;100625.84;5076868;28;1898;-16
2023/07/14 05:56:10;;;;;;;;;;;;;;;20.53;61.77;100608.28;5077126;28;1063;-16
2023/07/14 05:58:36;;;;;;;;;;;;;;;22.24;57.26;100585.88;5077254;28;1051;-16
2023/07/14 06:01:02;;;;;;;;;;;;;;;23.28;54.24;100589.75;5077315;28;1190;-16
2023/07/14 06:03:27;;;;;;;;;;;;;;;23.57;53.14;100596.59;5076962;28;1070;-16
2023/07/14 06:05:56;;;;;;;;;;;;;;;23.65;52.64;100574.31;5077647;28;1146;-16
2023/07/14 06:08:21;;;;;;;;;;;;;;;23.70;52.25;100560.41;5077252;28;1027;-16
2023/07/14 06:10:47;;;;;;;;;;;;;;;23.97;51.32;100572.69;5077375;28;1087;-16
2023/07/14 06:13:13;;;;;;;;;;;;;;;23.91;51.47;100561.75;5076791;28;1901;-16
2023/07/14 06:15:38;;;;;;;;;;;;;;;21.46;58.26;100555.94;5076510;28;1134;-18
2023/07/14 06:18:04;;;;;;;;;;;;;;;20.89;61.25;100580.91;5077123;28;1158;-15
2023/07/14 06:20:29;;;;;;;;;;;;;;;22.60;55.64;100552.84;5076799;28;1031;-15
2023/07/14 06:22:55;;;;;;;;;;;;;;;22.70;54.80;100554.56;5076589;28;1122;-15
2023/07/14 06:25:21;;;;;;;;;;;;;;;21.78;58.42;100556.47;5077224;28;1083;-16
2023/07/14 06:27:46;;;;;;;;;;;;;;;23.13;54.38;100586.84;5077200;28;1042;-17
2023/07/14 06:30:13;;;;;;;;;;;;;;;23.47;53.16;100599.41;5076828;28;1109;-16
2023/07/14 06:32:39;;;;;;;;;;;;;;;23.50;52.86;100598.28;5076546;28;1926;-15
2023/07/14 06:35:06;;;;;;;;;;;;;;;23.65;52.34;100579.69;5077050;28;1047;-15
2023/07/14 06:37:31;;;;;;;;;;;;;;;23.69;52.07;100575.66;5076914;28;1162;-15
2023/07/14 06:39:57;;;;;;;;;;;;;;;23.47;52.77;100591.38;5058670;28;1054;-16
2023/07/14 06:42:23;;;;;;;;;;;;;;;23.51;52.94;100588.34;5063411;28;1157;-15
2023/07/14 06:44:48;;;;;;;;;;;;;;;23.60;52.47;100582.88;5076237;28;1213;-16
2023/07/14 06:47:14;;;;;;;;;;;;;;;23.48;53.11;100592.22;5076835;28;1209;-15
2023/07/14 06:49:40;;;;;;;;;;;;;;;23.54;52.90;100598.78;5076452;28;1536;-15
2023/07/14 06:52:06;;;;;;;;;;;;;;;23.56;52.97;100581.50;5076433;28;1075;-15
2023/07/14 06:54:31;;;;;;;;;;;;;;;23.34;53.53;100602.53;5076358;28;1906;-15
2023/07/14 06:56:57;;;;;;;;;;;;;;;23.39;53.13;100598.53;5076236;28;1174;-16
2023/07/14 06:59:22;;;;;;;;;;;;;;;23.50;52.62;100597.41;5076438;28;1046;-16
2023/07/14 07:01:48;;;;;;;;;;;;;;;23.62;52.26;100598.81;5076560;28;1131;-15
2023/07/14 07:04:15;;;;;;;;;;;;;;;20.71;60.93;100586.16;5075954;28;1039;-19
2023/07/14 07:06:40;;;;;;;;;;;;;;;20.27;63.17;100617.69;5076017;28;1054;-15
2023/07/14 07:09:06;;;;;;;;;;;;;;;20.06;64.34;100601.81;5075933;28;1237;-17
2023/07/14 07:11:32;;;;;;;;;;;;;;;20.05;64.16;100586.78;5076432;28;1162;-15
2023/07/14 07:13:57;;;;;;;;;;;;;;;20.10;64.39;100624.59;5076084;28;1985;-15
2023/07/14 07:16:23;;;;;;;;;;;;;;;20.25;64.84;100613.50;5058068;28;1095;-16
2023/07/14 07:18:49;;;;;;;;;;;;;;;23.30;55.67;100625.34;5076437;28;1051;-17
2023/07/14 07:21:14;;;;;;;;;;;;;;;21.17;58.42;100619.28;5058178;28;1046;-16
2023/07/14 07:23:40;;;;;;;;;;;;;;;19.93;62.08;100642.94;5067100;28;1098;-17
2023/07/14 07:26:06;;;;;;;;;;;;;;;19.62;62.92;100642.16;5075719;28;1238;-18
2023/07/14 07:28:32;;;;;;;;;;;;;;;19.72;64.13;100623.50;5075574;28;2396;-17
2023/07/14 07:30:57;;;;;;;;;;;;;;;19.68;64.65;100636.25;5076060;28;1038;-17
2023/07/14 07:33:23;;;;;;;;;;;;;;;19.74;64.61;100625.03;5057755;28;1194;-16
2023/07/14 07:35:49;;;;;;;;;;;;;;;19.71;65.16;100649.34;5075971;28;1051;-17
2023/07/14 07:38:14;;;;;;;;;;;;;;;20.21;66.03;100646.78;5075748;28;1051;-17
2023/07/14 07:40:40;;;;;;;;;;;;;;;23.34;55.75;100644.63;5075765;28;1131;-17
2023/07/14 07:43:06;;;;;;;;;;;;;;;20.90;60.85;100639.59;5076124;28;1975;-17
2023/07/14 07:45:31;;;;;;;;;;;;;;;20.09;64.16;100628.22;5076065;28;1070;-16
2023/07/14 07:47:57;;;;;;;;;;;;;;;19.96;64.46;100649.81;5075899;28;1067;-17
2023/07/14 07:50:23;;;;;;;;;;;;;;;19.93;65.08;100658.97;5075783;28;1146;-17
2023/07/14 07:52:49;;;;;;;;;;;;;;;19.89;65.39;100660.19;5057868;28;852;-16
2023/07/14 07:55:14;;;;;;;;;;;;;;;19.86;65.68;100656.94;5076195;28;1263;-16
2023/07/14 07:57:40;;;;;;;;;;;;;;;22.62;58.08;100652.72;5075715;28;1129;-17
2023/07/14 08:00:07;;;;;;;;;;;;;;;21.37;60.15;100640.63;5057935;28;1167;-17
2023/07/14 08:02:41;;;;;;;;;;;;;;;19.94;63.67;100654.44;5076070;28;1910;-16
2023/07/14 08:05:06;;;;;;;;;;;;;;;19.59;63.69;100661.91;5075101;28;1054;-16
2023/07/14 08:07:32;;;;;;;;;;;;;;;19.60;65.22;100660.09;5075242;28;1091;-16
2023/07/14 08:09:58;;;;;;;;;;;;;;;19.66;65.23;100644.41;5057810;28;1141;-16
2023/07/14 08:12:25;;;;;;;;;;;;;;;19.65;65.71;100631.19;5075534;28;1111;-16
2023/07/14 08:14:51;;;;;;;;;;;;;;;19.72;65.57;100647.50;5075498;28;1054;-16
2023/07/14 08:17:16;;;;;;;;;;;;;;;19.97;66.28;100656.84;5075184;28;892;-16
2023/07/14 08:19:42;;;;;;;;;;;;;;;22.79;57.47;100650.16;5076228;28;1039;-16
2023/07/14 08:22:07;;;;;;;;;;;;;;;20.94;60.98;100658.06;5079516;28;1110;-16
2023/07/14 08:24:33;;;;;;;;;;;;;;;19.79;63.42;100648.63;5078982;28;1989;-16
2023/07/14 08:26:59;;;;;;;;;;;;;;;19.45;63.35;100647.97;5079221;28;1127;-16
2023/07/14 08:29:24;;;;;;;;;;;;;;;19.58;64.47;100658.41;5077244;28;1326;-16
2023/07/14 08:31:50;;;;;;;;;;;;;;;19.60;65.18;100652.97;5079099;28;1153;-16
2023/07/14 08:34:15;;;;;;;;;;;;;;;19.78;64.92;100652.31;5078937;28;1265;-16
2023/07/14 08:36:41;;;;;;;;;;;;;;;19.84;65.34;100649.09;5078814;28;1102;-16
2023/07/14 08:39:07;;;;;;;;;;;;;;;20.24;65.11;100652.69;5076377;28;2671;-16
2023/07/14 08:41:35;;;;;;;;;;;;;;;23.17;56.48;100651.75;5075629;28;1848;-17
2023/07/14 08:44:10;;;;;;;;;;;;;;;20.76;61.14;100648.06;5063778;28;2119;-17
2023/07/14 08:46:38;;;;;;;;;;;;;;;19.70;63.54;100655.66;5067121;28;2335;-17
2023/07/14 08:49:09;;;;;;;;;;;;;;;19.52;64.38;100645.59;5060064;28;1927;-16
2023/07/14 08:51:36;;;;;;;;;;;;;;;19.50;65.21;100636.88;5060858;28;2211;-17
2023/07/14 08:54:13;;;;;;;;;;;;;;;19.54;65.49;100629.47;5067642;28;1928;-17
2023/07/14 08:56:39;;;;;;;;;;;;;;;19.57;65.86;100626.50;5060813;28;1118;-17
2023/07/14 08:59:05;;;;;;;;;;;;;;;19.61;66.14;100625.28;5078239;28;1088;-16
2023/07/14 09:01:47;;;;;;;;;;;;;;;20.84;65.24;100626.81;5078365;28;1043;-16
2023/07/14 09:04:20;;;;;;;;;;;;;;;23.38;56.15;100637.09;5060346;28;1906;-16
2023/07/14 09:06:46;;;;;;;;;;;;;;;19.92;63.79;100629.69;5059928;28;880;-17
2023/07/14 09:09:31;;;;;;;;;;;;;;;19.44;64.26;100618.75;5077854;28;1094;-16
2023/07/14 09:12:09;;;;;;;;;;;;;;;19.45;65.62;100615.13;5078231;28;1043;-16
2023/07/14 09:14:37;;;;;;;;;;;;;;;19.48;65.95;100625.53;5059869;28;2092;-17
2023/07/14 09:17:21;;;;;;;;;;;;;;;19.51;66.21;100624.41;5064763;28;991;-16
2023/07/14 09:19:50;;;;;;;;;;;;;;;19.52;66.54;100623.44;5077652;28;1074;-16
2023/07/14 09:22:21;;;;;;;;;;;;;;;20.12;67.88;100617.25;5078201;28;1007;-16
2023/07/14 09:24:52;;;;;;;;;;;;;;;23.24;56.12;100617.91;5069304;28;2524;-16
2023/07/14 09:27:20;;;;;;;;;;;;;;;20.26;63.33;100616.03;5056275;28;1078;-16
2023/07/14 09:33:08;;;;;;;;;;;;;;;19.40;66.06;100612.00;5077368;28;1119;-16
2023/07/14 09:35:37;;;;;;;;;;;;;;;19.50;66.12;100617.38;5059831;28;1119;-17
2023/07/14 09:38:05;;;;;;;;;;;;;;;19.47;66.47;100617.66;5077189;28;1072;-17
2023/07/14 09:40:34;;;;;;;;;;;;;;;19.47;66.91;100621.16;5077163;28;1149;-17
2023/07/14 09:43:01;;;;;;;;;;;;;;;19.57;66.74;100624.69;5077261;28;1981;-16
2023/07/14 09:45:33;;;;;;;;;;;;;;;22.30;59.50;100624.63;5077473;28;1035;-16
2023/07/14 09:48:01;;;;;;;;;;;;;;;20.63;61.24;100619.81;5064955;28;1036;-17
2023/07/14 09:50:26;;;;;;;;;;;;;;;19.46;64.65;100606.13;5077076;28;1067;-16
2023/07/14 09:52:53;;;;;;;;;;;;;;;19.47;65.52;100623.00;5076603;28;1019;-16
2023/07/14 09:55:19;;;;;;;;;;;;;;;19.50;66.26;100620.06;5047384;28;2295;-16
2023/07/14 09:57:46;;;;;;;;;;;;;;;19.49;66.40;100624.53;5077194;28;1058;-17
2023/07/14 10:00:22;;;;;;;;;;;;;;;19.54;66.79;100624.97;5076748;28;1011;-17
2023/07/14 10:03:07;;;;;;;;;;;;;;;19.58;67.03;100623.72;5059049;28;1979;-17
2023/07/14 10:05:47;;;;;;;;;;;;;;;21.54;64.02;100624.75;5076932;28;1055;-16
2023/07/14 10:08:28;;;;;;;;;;;;;;;22.46;59.25;100617.69;5076884;28;1011;-17
2023/07/14 10:10:55;;;;;;;;;;;;;;;19.82;64.41;100622.53;5076974;28;1042;-17
2023/07/14 10:13:26;;;;;;;;;;;;;;;19.47;64.78;100618.47;5058915;28;1001;-16
2023/07/14 10:16:12;;;;;;;;;;;;;;;19.58;65.68;100613.03;5059102;28;1150;-16
2023/07/14 10:18:46;;;;;;;;;;;;;;;19.68;66.64;100614.91;5075746;28;1837;-17
2023/07/14 10:21:12;;;;;;;;;;;;;;;19.63;66.76;100619.81;5076372;28;1023;-17
2023/07/14 10:23:38;;;;;;;;;;;;;;;19.70;67.21;100620.97;5058991;28;1975;-17
2023/07/14 10:26:03;;;;;;;;;;;;;;;20.29;67.94;100621.06;5071215;28;2640;-17
2023/07/14 10:28:29;;;;;;;;;;;;;;;22.98;57.60;100626.81;5076370;28;1015;-17
2023/07/14 10:31:02;;;;;;;;;;;;;;;20.37;61.81;100615.03;5076276;28;912;-17
2023/07/14 10:33:42;;;;;;;;;;;;;;;19.64;64.42;100622.34;5076216;28;1099;-17
2023/07/14 10:36:19;;;;;;;;;;;;;;;19.49;65.51;100607.66;5058200;28;1066;-17
2023/07/14 10:39:01;;;;;;;;;;;;;;;19.58;65.92;100604.22;5076327;28;1039;-17
2023/07/14 10:41:27;;;;;;;;;;;;;;;19.68;66.56;100605.09;5045623;28;1135;-17
2023/07/14 10:43:56;;;;;;;;;;;;;;;19.82;66.71;100608.31;5076001;28;1997;-17
2023/07/14 10:46:27;;;;;;;;;;;;;;;19.79;66.86;100601.44;5058309;28;1162;-17
2023/07/14 10:49:05;;;;;;;;;;;;;;;22.04;61.50;100597.75;5058233;28;1115;-18
2023/07/14 10:51:32;;;;;;;;;;;;;;;21.39;60.48;100603.00;5058684;28;1159;-17
2023/07/14 10:54:03;;;;;;;;;;;;;;;20.01;64.72;100596.00;5056122;28;2350;-18
2023/07/14 10:56:30;;;;;;;;;;;;;;;19.53;64.72;100607.28;5038183;28;1131;-19
2023/07/14 10:58:59;;;;;;;;;;;;;;;19.64;65.44;100598.31;5073848;28;1075;-19
2023/07/14 11:01:36;;;;;;;;;;;;;;;19.61;65.96;100600.41;5058160;28;1383;-19
2023/07/14 11:04:24;;;;;;;;;;;;;;;19.69;66.00;100596.09;5057869;28;1910;-18
2023/07/14 11:06:51;;;;;;;;;;;;;;;19.88;66.12;100593.59;5064967;28;1440;-18
2023/07/14 11:09:16;;;;;;;;;;;;;;;20.90;66.12;100594.13;5058313;28;1098;-18
2023/07/14 11:11:42;;;;;;;;;;;;;;;23.72;55.25;100591.44;5057644;28;1107;-19
2023/07/14 11:14:13;;;;;;;;;;;;;;;20.37;60.79;100595.50;5075868;28;1103;-18
2023/07/14 11:16:42;;;;;;;;;;;;;;;19.65;63.55;100586.66;5075786;28;1408;-18
2023/07/14 11:19:12;;;;;;;;;;;;;;;19.64;64.37;100598.31;5075375;28;856;-19
2023/07/14 11:21:45;;;;;;;;;;;;;;;19.78;64.49;100598.91;5058171;28;1186;-19
2023/07/14 11:24:21;;;;;;;;;;;;;;;19.79;65.16;100585.44;5071916;28;2239;-18
2023/07/14 11:26:52;;;;;;;;;;;;;;;19.82;65.30;100581.63;5062395;28;1034;-18
2023/07/14 11:29:18;;;;;;;;;;;;;;;19.81;65.48;100582.63;5075828;28;1123;-18
2023/07/14 11:31:46;;;;;;;;;;;;;;;21.74;61.54;100593.38;5057727;28;941;-19
2023/07/14 11:34:14;;;;;;;;;;;;;;;23.55;55.22;100589.72;5057887;28;1035;-18
2023/07/14 11:36:46;;;;;;;;;;;;;;;20.09;62.33;100588.16;5075895;28;987;-18
2023/07/14 11:39:11;;;;;;;;;;;;;;;19.62;63.05;100586.94;5075429;28;1051;-18
2023/07/14 11:41:37;;;;;;;;;;;;;;;19.69;63.92;100589.91;5075586;28;1051;-18
2023/07/14 11:44:05;;;;;;;;;;;;;;;19.74;64.19;100586.81;5075470;28;1983;-18
2023/07/14 11:46:31;;;;;;;;;;;;;;;19.74;64.27;100593.00;5057946;28;924;-18
2023/07/14 11:48:57;;;;;;;;;;;;;;;19.74;64.93;100592.16;5075881;28;1019;-18
2023/07/14 11:51:42;;;;;;;;;;;;;;;19.75;64.95;100589.34;5073451;28;1075;-18
2023/07/14 11:54:13;;;;;;;;;;;;;;;23.02;56.46;100589.78;5055664;28;1782;-18
2023/07/14 11:56:39;;;;;;;;;;;;;;;20.80;60.70;100596.00;5064786;28;1111;-18
2023/07/14 11:59:06;;;;;;;;;;;;;;;19.72;63.27;100596.81;5062671;28;1006;-18
2023/07/14 12:01:31;;;;;;;;;;;;;;;19.37;64.05;100605.09;5063605;28;1043;-18
2023/07/14 12:04:15;;;;;;;;;;;;;;;19.53;64.59;100611.78;5069905;28;1985;-18
2023/07/14 12:06:43;;;;;;;;;;;;;;;19.58;64.94;100604.22;5079448;28;859;-18
2023/07/14 12:09:10;;;;;;;;;;;;;;;19.65;65.24;100600.00;5077240;28;1410;-18
2023/07/14 12:11:39;;;;;;;;;;;;;;;19.73;66.27;100587.81;5078599;28;1078;-19
2023/07/14 12:14:23;;;;;;;;;;;;;;;20.53;67.85;100590.44;5078914;28;1047;-18
2023/07/14 12:16:48;;;;;;;;;;;;;;;23.97;55.04;100604.94;5067720;28;1077;-18
2023/07/14 12:19:20;;;;;;;;;;;;;;;20.23;63.78;100596.75;5070548;28;1170;-18
2023/07/14 12:21:55;;;;;;;;;;;;;;;19.63;64.14;100601.97;5079375;28;1042;-18
2023/07/14 12:24:22;;;;;;;;;;;;;;;19.56;64.98;100598.16;5078728;28;1914;-18
2023/07/14 12:26:47;;;;;;;;;;;;;;;19.50;65.25;100599.53;5064520;28;1355;-18
2023/07/14 12:29:14;;;;;;;;;;;;;;;19.52;65.61;100599.44;5078732;28;1074;-18
2023/07/14 12:31:40;;;;;;;;;;;;;;;19.52;65.55;100597.56;5068752;28;1022;-18
2023/07/14 12:34:05;;;;;;;;;;;;;;;19.55;65.64;100599.16;5070210;28;1112;-18
2023/07/14 12:36:31;;;;;;;;;;;;;;;21.59;61.65;100600.22;5078516;28;1119;-18
2023/07/14 12:38:57;;;;;;;;;;;;;;;22.18;57.59;100612.44;5078963;28;1031;-18
2023/07/14 12:41:27;;;;;;;;;;;;;;;19.79;63.41;100611.28;5078521;28;1063;-18
2023/07/14 12:43:57;;;;;;;;;;;;;;;19.35;63.96;100606.22;5060424;28;1977;-18
2023/07/14 12:46:34;;;;;;;;;;;;;;;19.29;65.49;100602.25;5061023;28;1522;-18
2023/07/14 12:49:04;;;;;;;;;;;;;;;19.30;65.61;100602.13;5075561;28;1090;-18
2023/07/14 12:51:30;;;;;;;;;;;;;;;19.37;65.56;100602.44;5057770;28;1110;-18
2023/07/14 12:54:00;;;;;;;;;;;;;;;19.37;65.76;100599.78;5055079;28;2475;-18